Acton, MT

12:14 AM MDT on September 18, 2014 (GMT -0600)
Ironwood MT | Change Station
CLOSE
Current Station
Personal Weather Station
Location: Billings, MT
Elevation: 3504 ft
Nearby Weather Stations

Elev 3504 ft 45.82 °N, 108.66 °W | Updated 13 seconds ago

Partly Cloudy
Partly Cloudy
58.9 °F
Feels Like 58.9 °F
N
0.0
Wind Variable Wind from NNE
Gusts 0.0 mph

Today
High -- | Low -- °F
--% Chance of Precip.
Yesterday
High -- | Low -- °F
Precip. -- in
6:56 AM 7:20 PM
Waning Crescent, 30% visible
Pressure 29.77 in
Visibility 10.0 miles
Clouds Few 13000 ft
Mostly Cloudy 20000 ft
Dew Point 48 °F
Humidity 67%
Rainfall 0.00 in
Snow Depth Not available.
UV 0 out of 12
Pollen 6.00 out of 12
Air Quality Not available.
Flu Activity Not available.
METAR KBIL 180553Z 24005KT 10SM FEW130 BKN200 18/10 A2987 RMK AO2 SLP081 60000 T01780100 10294 20178 58009

More Conditions Fewer Conditions

Pressure 29.77 in
Visibility 10.0 miles
Clouds Few 13000 ft
Mostly Cloudy 20000 ft
Dew Point 48 °F
Humidity 67%
Rainfall 0.00 in
Snow Depth Not available.
UV 0 out of 12
Pollen 6.00 out of 12
Air Quality Not available.
Flu Activity Not available.
METAR KBIL 180553Z 24005KT 10SM FEW130 BKN200 18/10 A2987 RMK AO2 SLP081 60000 T01780100 10294 20178 58009

More Conditions Fewer Conditions

10-Day Weather Forecast

Almanac

Astronomy

Sep. 18, 2014 Rise Set
Actual Time 6:56 AM MDT 7:20 PM MDT
Civil Twilight 6:26 AM MDT 7:49 PM MDT
Nautical Twilight 5:51 AM MDT 8:25 PM MDT
Astronomical Twilight 5:15 AM MDT 9:01 PM MDT
Moon 1:39 AM MDT 4:24 PM MDT
Length of Visible Light 13h 22m
Length of Day
12h 23m
Tomorrow will be 3m 13s shorter.
Waning Crescent, 30% of the Moon is Illuminated
Today
Waning Crescent
Sep 24
New
Oct 1
First Quarter
Oct 8
Full
Oct 15
Last Quarter

Today's Extremes

State Highs State Lows

Community

WunderPhotos

Upload Photos

1,754,298 photos uploaded!

Nearby

Snow Depth

Station Depth Elevation
Black Pine 0 in 7210 ft
Divide 0 in 7800 ft
Garver Creek 1 in 4250 ft
Northeast Entrance 0 in 7350 ft
Porcupine 1 in 6500 ft

Earthquake Activity

City Distance Mag. Time & Date
No recent earthquake activity has been reported nearby.
Minimum magnitude displayed is 2.5.

Coastal Water Temperatures

Place Temperature
No Stations Reporting

Nearby Weather Stations